createdAt,value
2017-12-31T00:00:39.928Z,70.86
2017-12-31T00:01:39.851Z,70.09
2017-12-31T00:02:40.865Z,70.47
2017-12-31T00:03:39.797Z,70.57
2017-12-31T00:04:39.849Z,71.33
2017-12-31T00:05:39.749Z,71.72
2017-12-31T00:06:39.758Z,69.33
2017-12-31T00:07:39.705Z,70.86
2017-12-31T00:08:39.687Z,70.47
2017-12-31T00:09:39.655Z,70.28
2017-12-31T00:10:39.681Z,70.67
2017-12-31T00:11:39.612Z,70.57
2017-12-31T00:12:39.692Z,71.14
2017-12-31T00:13:39.564Z,70.09
2017-12-31T00:14:39.541Z,70.76
2017-12-31T00:15:39.615Z,69.04
2017-12-31T00:16:39.498Z,67.23
2017-12-31T00:17:39.517Z,66.28
2017-12-31T00:18:39.450Z,66.09
2017-12-31T00:19:39.530Z,66.09
2017-12-31T00:20:39.406Z,67.33
2017-12-31T00:21:39.440Z,65.52
2017-12-31T00:22:39.363Z,63.51
2017-12-31T00:23:39.591Z,65.70
2017-12-31T00:24:39.309Z,67.04
2017-12-31T00:25:39.465Z,67.04
2017-12-31T00:26:39.268Z,65.23
2017-12-31T00:27:39.374Z,63.60
2017-12-31T00:28:39.218Z,62.75
2017-12-31T00:29:39.202Z,62.27
2017-12-31T00:30:39.177Z,59.60
2017-12-31T00:31:39.299Z,59.41
2017-12-31T00:32:39.126Z,60.17
2017-12-31T00:33:39.314Z,59.00
2017-12-31T00:34:39.092Z,57.38
2017-12-31T00:35:39.223Z,57.98
2017-12-31T00:36:39.033Z,56.36
2017-12-31T00:37:39.139Z,55.28
2017-12-31T00:38:38.991Z,55.00
2017-12-31T00:39:38.966Z,52.71
2017-12-31T00:40:38.944Z,53.85
2017-12-31T00:41:39.052Z,52.14
2017-12-31T00:42:38.898Z,54.52
2017-12-31T00:43:39.069Z,56.52
2017-12-31T00:44:38.849Z,56.81
2017-12-31T00:45:38.972Z,48.61
2017-12-31T00:46:38.808Z,53.38
2017-12-31T00:47:38.988Z,52.42
2017-12-31T00:48:38.755Z,51.09
2017-12-31T00:49:38.762Z,49.08
2017-12-31T00:50:38.902Z,46.70
2017-12-31T00:51:38.686Z,48.32
2017-12-31T00:52:38.821Z,49.08
2017-12-31T00:53:38.635Z,48.99
2017-12-31T00:54:38.612Z,47.94
2017-12-31T00:55:38.592Z,47.37
2017-12-31T00:56:38.748Z,51.85
2017-12-31T00:57:38.542Z,49.18
2017-12-31T00:58:38.646Z,48.61
2017-12-31T00:59:38.501Z,49.08
2017-12-31T01:00:38.664Z,49.28
2017-12-31T01:01:38.453Z,49.66
2017-12-31T01:02:38.564Z,46.80
2017-12-31T01:03:38.398Z,46.51
2017-12-31T01:04:38.581Z,44.89
2017-12-31T01:05:38.363Z,46.23
2017-12-31T01:06:38.492Z,46.13
2017-12-31T01:07:38.318Z,44.13
2017-12-31T01:08:38.398Z,43.56
2017-12-31T01:09:38.315Z,42.70
2017-12-31T01:10:38.410Z,43.46
2017-12-31T01:11:38.223Z,42.89
2017-12-31T01:12:39.343Z,41.65
2017-12-31T01:13:38.171Z,41.65
2017-12-31T01:14:38.144Z,41.08
2017-12-31T01:15:38.240Z,40.99
2017-12-31T01:16:38.094Z,40.30
2017-12-31T01:17:38.250Z,40.48
2017-12-31T01:18:38.083Z,40.58
2017-12-31T01:19:38.270Z,39.27
2017-12-31T01:20:38.001Z,39.06
2017-12-31T01:21:38.175Z,39.25
2017-12-31T01:22:37.952Z,38.58
2017-12-31T01:23:38.080Z,39.06
2017-12-31T01:24:37.916Z,38.68
2017-12-31T01:25:37.997Z,38.20
2017-12-31T01:26:37.868Z,38.20
2017-12-31T01:27:38.002Z,37.63
2017-12-31T01:28:37.817Z,37.54
2017-12-31T01:29:37.912Z,38.10
2017-12-31T01:30:37.772Z,37.44
2017-12-31T01:31:37.741Z,36.96
2017-12-31T01:32:38.858Z,37.54
2017-12-31T01:33:37.698Z,37.73
2017-12-31T01:34:37.843Z,36.96
2017-12-31T01:35:37.650Z,36.68
2017-12-31T01:36:37.757Z,36.20
2017-12-31T01:37:37.758Z,36.58
2017-12-31T01:38:37.581Z,36.30
2017-12-31T01:39:37.669Z,37.15
2017-12-31T01:40:37.532Z,36.20
2017-12-31T01:41:37.681Z,36.20
2017-12-31T01:42:37.487Z,36.30
2017-12-31T01:43:37.457Z,36.87
2017-12-31T01:44:37.710Z,36.20
2017-12-31T01:45:37.417Z,36.87
2017-12-31T01:46:37.507Z,36.20
2017-12-31T01:47:37.365Z,36.10
2017-12-31T01:48:37.416Z,36.10
2017-12-31T01:49:37.319Z,36.01
2017-12-31T01:50:37.432Z,35.91
2017-12-31T01:51:37.267Z,35.91
2017-12-31T01:52:37.340Z,35.53
2017-12-31T01:53:37.224Z,35.72
2017-12-31T01:54:37.204Z,35.44
2017-12-31T01:55:37.182Z,35.44
2017-12-31T01:56:37.261Z,35.25
2017-12-31T01:57:37.134Z,35.72
2017-12-31T01:58:37.277Z,34.77
2017-12-31T01:59:37.076Z,34.87
2017-12-31T02:00:37.059Z,34.87
2017-12-31T02:01:37.037Z,34.96
2017-12-31T02:02:37.097Z,34.87
2017-12-31T02:03:36.979Z,35.15
2017-12-31T02:04:37.107Z,34.96
2017-12-31T02:05:36.943Z,34.96
2017-12-31T02:06:36.918Z,34.96
2017-12-31T02:07:37.030Z,35.15
2017-12-31T02:08:36.881Z,35.06
2017-12-31T02:09:36.938Z,34.96
2017-12-31T02:10:36.815Z,34.87
2017-12-31T02:11:36.944Z,34.96
2017-12-31T02:12:36.777Z,34.96
2017-12-31T02:13:36.856Z,34.96
2017-12-31T02:14:36.727Z,34.96
2017-12-31T02:15:36.879Z,34.96
2017-12-31T02:16:36.678Z,35.25
2017-12-31T02:17:36.653Z,35.15
2017-12-31T02:18:36.637Z,34.85
2017-12-31T02:19:36.688Z,35.04
2017-12-31T02:20:36.576Z,34.87
2017-12-31T02:21:36.697Z,34.94
2017-12-31T02:22:36.534Z,34.96
2017-12-31T02:23:36.613Z,34.85
2017-12-31T02:24:36.483Z,34.94
2017-12-31T02:25:37.549Z,35.04
2017-12-31T02:26:36.432Z,35.04
2017-12-31T02:27:36.541Z,34.94
2017-12-31T02:28:36.392Z,34.94
2017-12-31T02:29:36.439Z,34.94
2017-12-31T02:30:36.353Z,35.04
2017-12-31T02:31:37.379Z,34.94
2017-12-31T02:32:36.288Z,35.04
2017-12-31T02:33:36.374Z,35.04
2017-12-31T02:34:36.242Z,34.85
2017-12-31T02:35:36.235Z,34.94
2017-12-31T02:36:36.198Z,34.94
2017-12-31T02:37:36.302Z,34.94
2017-12-31T02:38:36.154Z,34.94
2017-12-31T02:39:36.192Z,34.94
2017-12-31T02:40:36.106Z,35.23
2017-12-31T02:41:36.073Z,35.52
2017-12-31T02:42:36.219Z,35.61
2017-12-31T02:43:36.030Z,35.61
2017-12-31T02:44:36.198Z,35.71
2017-12-31T02:45:35.978Z,35.42
2017-12-31T02:46:36.029Z,35.61
2017-12-31T02:47:35.943Z,35.71
2017-12-31T02:48:36.048Z,35.52
2017-12-31T02:49:35.881Z,35.61
2017-12-31T02:50:35.953Z,35.33
2017-12-31T02:51:35.843Z,35.52
2017-12-31T02:52:35.817Z,35.33
2017-12-31T02:53:35.787Z,35.23
2017-12-31T02:54:35.879Z,35.52
2017-12-31T02:55:35.754Z,35.04
2017-12-31T02:56:35.793Z,34.75
2017-12-31T02:57:35.698Z,34.85
2017-12-31T02:58:35.672Z,34.94
2017-12-31T02:59:35.657Z,34.75
2017-12-31T03:00:35.707Z,34.75
2017-12-31T03:01:35.600Z,34.94
2017-12-31T03:02:36.640Z,34.85
2017-12-31T03:03:35.546Z,34.56
2017-12-31T03:04:35.521Z,34.66
2017-12-31T03:05:35.532Z,34.66
2017-12-31T03:06:35.481Z,34.18
2017-12-31T03:07:35.542Z,34.18
2017-12-31T03:08:35.429Z,34.56
2017-12-31T03:09:35.454Z,34.94
2017-12-31T03:10:35.388Z,34.56
2017-12-31T03:11:35.465Z,34.85
2017-12-31T03:12:35.334Z,35.61
2017-12-31T03:13:35.376Z,35.99
2017-12-31T03:14:35.289Z,36.28
2017-12-31T03:15:35.286Z,36.28
2017-12-31T03:16:35.237Z,36.28
2017-12-31T03:17:35.402Z,35.99
2017-12-31T03:18:35.198Z,36.28
2017-12-31T03:19:35.312Z,36.66
2017-12-31T03:20:35.138Z,36.76
2017-12-31T03:21:35.331Z,36.57
2017-12-31T03:22:35.096Z,36.76
2017-12-31T03:23:35.234Z,36.76
2017-12-31T03:24:35.043Z,36.57
2017-12-31T03:25:35.144Z,36.47
2017-12-31T03:26:34.998Z,35.99
2017-12-31T03:27:34.980Z,36.37
2017-12-31T03:28:34.951Z,36.66
2017-12-31T03:29:35.071Z,36.94
2017-12-31T03:30:34.908Z,37.04
2017-12-31T03:31:35.078Z,37.23
2017-12-31T03:32:34.862Z,36.85
2017-12-31T03:33:34.835Z,36.76
2017-12-31T03:34:34.812Z,36.66
2017-12-31T03:35:34.896Z,37.13
2017-12-31T03:36:34.767Z,37.23
2017-12-31T03:37:34.910Z,37.42
2017-12-31T03:38:34.716Z,37.23
2017-12-31T03:39:34.821Z,37.13
2017-12-31T03:40:34.700Z,36.76
2017-12-31T03:41:34.833Z,37.23
2017-12-31T03:42:34.627Z,36.94
2017-12-31T03:43:34.591Z,36.94
2017-12-31T03:44:34.572Z,37.23
2017-12-31T03:45:34.651Z,36.85
2017-12-31T03:46:34.530Z,36.94
2017-12-31T03:47:34.665Z,37.23
2017-12-31T03:48:34.477Z,37.52
2017-12-31T03:49:34.449Z,37.99
2017-12-31T03:50:34.580Z,37.52
2017-12-31T03:51:34.397Z,37.23
2017-12-31T03:52:35.517Z,37.52
2017-12-31T03:53:34.355Z,37.42
2017-12-31T03:54:34.504Z,37.52
2017-12-31T03:55:34.302Z,37.32
2017-12-31T03:56:34.282Z,37.32
2017-12-31T03:57:34.255Z,37.42
2017-12-31T03:58:34.421Z,37.42
2017-12-31T03:59:34.211Z,37.52
2017-12-31T04:00:34.335Z,37.23
2017-12-31T04:01:34.168Z,37.13
2017-12-31T04:02:34.138Z,37.42
2017-12-31T04:03:34.250Z,37.61
2017-12-31T04:04:34.097Z,37.42
2017-12-31T04:05:34.161Z,37.32
2017-12-31T04:06:34.037Z,37.80
2017-12-31T04:07:34.175Z,37.52
2017-12-31T04:08:33.997Z,37.42
2017-12-31T04:09:34.082Z,37.52
2017-12-31T04:10:33.944Z,37.52
2017-12-31T04:11:34.095Z,37.52
2017-12-31T04:12:33.897Z,37.99
2017-12-31T04:13:33.907Z,37.90
2017-12-31T04:14:33.852Z,37.42
2017-12-31T04:15:33.914Z,37.61
2017-12-31T04:16:33.800Z,37.32
2017-12-31T04:17:33.927Z,37.42
2017-12-31T04:18:33.759Z,37.23
2017-12-31T04:19:33.723Z,37.61
2017-12-31T04:20:33.707Z,37.52
2017-12-31T04:21:33.848Z,37.52
2017-12-31T04:22:33.678Z,37.04
2017-12-31T04:23:33.760Z,37.04
2017-12-31T04:24:33.610Z,37.25
2017-12-31T04:25:33.583Z,37.06
2017-12-31T04:26:33.561Z,37.15
2017-12-31T04:27:33.684Z,37.15
2017-12-31T04:28:33.509Z,37.06
2017-12-31T04:29:33.592Z,36.77
2017-12-31T04:30:33.462Z,36.49
2017-12-31T04:31:33.443Z,36.39
2017-12-31T04:32:35.555Z,36.39
2017-12-31T04:33:33.401Z,36.01
2017-12-31T04:34:33.519Z,36.39
2017-12-31T04:35:33.345Z,36.20
2017-12-31T04:36:33.428Z,35.53
2017-12-31T04:37:33.298Z,35.72
2017-12-31T04:38:33.441Z,35.72
2017-12-31T04:39:33.250Z,34.20
2017-12-31T04:40:33.347Z,35.35
2017-12-31T04:41:33.200Z,34.87
2017-12-31T04:42:33.173Z,34.58
2017-12-31T04:43:33.154Z,34.79
2017-12-31T04:44:33.278Z,34.58
2017-12-31T04:45:33.104Z,34.12
2017-12-31T04:46:33.183Z,33.93
2017-12-31T04:47:33.053Z,34.01
2017-12-31T04:48:33.041Z,33.74
2017-12-31T04:49:33.006Z,34.01
2017-12-31T04:50:33.107Z,33.84
2017-12-31T04:51:32.960Z,34.11
2017-12-31T04:52:33.016Z,33.45
2017-12-31T04:53:32.917Z,33.45
2017-12-31T04:54:32.890Z,33.45
2017-12-31T04:55:32.864Z,33.93
2017-12-31T04:56:32.936Z,33.84
2017-12-31T04:57:32.819Z,33.84
2017-12-31T04:58:32.949Z,33.17
2017-12-31T04:59:32.767Z,33.07
2017-12-31T05:00:32.743Z,33.74
2017-12-31T05:01:32.864Z,33.07
2017-12-31T05:02:32.696Z,32.88
2017-12-31T05:03:32.774Z,32.60
2017-12-31T05:04:32.650Z,32.50
2017-12-31T05:05:32.628Z,32.31
2017-12-31T05:06:32.690Z,32.50
2017-12-31T05:07:32.612Z,32.50
2017-12-31T05:08:32.704Z,32.60
2017-12-31T05:09:32.538Z,32.40
2017-12-31T05:10:32.506Z,32.21
2017-12-31T05:11:32.619Z,31.16
2017-12-31T05:12:32.455Z,30.98
2017-12-31T05:13:32.528Z,31.16
2017-12-31T05:14:32.409Z,30.98
2017-12-31T05:15:32.541Z,30.79
2017-12-31T05:16:32.362Z,31.07
2017-12-31T05:17:32.452Z,30.98
2017-12-31T05:18:32.319Z,30.98
2017-12-31T05:19:32.362Z,30.98
2017-12-31T05:20:32.273Z,30.98
2017-12-31T05:21:32.375Z,30.98
2017-12-31T05:22:32.228Z,30.88
2017-12-31T05:23:32.202Z,31.16
2017-12-31T05:24:32.293Z,31.07
2017-12-31T05:25:32.146Z,30.69
2017-12-31T05:26:32.201Z,31.16
2017-12-31T05:27:32.101Z,31.16
2017-12-31T05:28:32.214Z,30.69
2017-12-31T05:29:32.053Z,31.26
2017-12-31T05:30:32.125Z,31.26
2017-12-31T05:31:32.005Z,31.16
2017-12-31T05:32:32.132Z,31.26
2017-12-31T05:33:31.963Z,30.79
2017-12-31T05:34:32.043Z,31.64
2017-12-31T05:35:31.907Z,31.84
2017-12-31T05:36:31.953Z,32.03
2017-12-31T05:37:31.871Z,31.64
2017-12-31T05:38:31.965Z,31.64
2017-12-31T05:39:31.821Z,31.74
2017-12-31T05:40:31.874Z,31.74
2017-12-31T05:41:31.772Z,31.16
2017-12-31T05:42:31.787Z,31.55
2017-12-31T05:43:31.719Z,31.74
2017-12-31T05:44:31.795Z,31.93
2017-12-31T05:45:31.677Z,31.16
2017-12-31T05:46:31.652Z,31.16
2017-12-31T05:47:31.628Z,31.07
2017-12-31T05:48:31.721Z,30.88
2017-12-31T05:49:31.583Z,30.69
2017-12-31T05:50:31.627Z,30.12
2017-12-31T05:51:31.534Z,29.93
2017-12-31T05:52:31.510Z,30.60
2017-12-31T05:53:31.483Z,30.02
2017-12-31T05:54:31.550Z,30.12
2017-12-31T05:55:31.432Z,30.12
2017-12-31T05:56:31.461Z,30.12
2017-12-31T05:57:31.393Z,30.02
2017-12-31T05:58:31.376Z,30.02
2017-12-31T05:59:31.342Z,30.02
2017-12-31T06:00:31.383Z,29.83
2017-12-31T06:01:31.302Z,29.36
2017-12-31T06:02:31.293Z,29.64
2017-12-31T06:03:31.251Z,29.45
2017-12-31T06:04:31.226Z,29.64
2017-12-31T06:05:31.314Z,29.74
2017-12-31T06:06:31.174Z,29.83
2017-12-31T06:07:31.225Z,29.55
2017-12-31T06:08:31.125Z,29.64
2017-12-31T06:09:31.102Z,29.26
2017-12-31T06:10:31.090Z,29.45
2017-12-31T06:11:31.247Z,29.07
2017-12-31T06:12:31.035Z,29.36
2017-12-31T06:13:31.157Z,28.97
2017-12-31T06:14:30.988Z,28.88
2017-12-31T06:15:31.168Z,28.97
2017-12-31T06:16:30.939Z,28.88
2017-12-31T06:17:31.079Z,28.97
2017-12-31T06:18:30.894Z,29.36
2017-12-31T06:19:30.993Z,29.07
2017-12-31T06:20:30.841Z,29.16
2017-12-31T06:21:30.822Z,29.93
2017-12-31T06:22:30.799Z,29.45
2017-12-31T06:23:30.915Z,30.21
2017-12-31T06:24:30.749Z,29.93
2017-12-31T06:25:30.926Z,28.97
2017-12-31T06:26:30.698Z,29.07
2017-12-31T06:27:30.678Z,29.16
2017-12-31T06:28:30.651Z,29.07
2017-12-31T06:29:30.750Z,29.07
2017-12-31T06:30:30.611Z,28.97
2017-12-31T06:31:30.756Z,29.07
2017-12-31T06:32:30.558Z,29.74
2017-12-31T06:33:30.667Z,29.93
2017-12-31T06:34:30.512Z,30.21
2017-12-31T06:35:30.591Z,31.07
2017-12-31T06:36:30.461Z,29.83
2017-12-31T06:37:30.435Z,30.12
2017-12-31T06:38:30.419Z,31.26
2017-12-31T06:39:30.496Z,32.79
2017-12-31T06:40:30.364Z,30.98
2017-12-31T06:41:30.407Z,31.74
2017-12-31T06:42:30.323Z,33.36
2017-12-31T06:43:30.298Z,30.98
2017-12-31T06:44:30.276Z,33.93
2017-12-31T06:45:30.328Z,32.12
2017-12-31T06:46:30.226Z,33.57
2017-12-31T06:47:30.238Z,36.81
2017-12-31T06:48:30.245Z,34.61
2017-12-31T06:49:30.152Z,37.86
2017-12-31T06:50:30.152Z,35.86
2017-12-31T06:51:30.114Z,36.90
2017-12-31T06:52:30.168Z,33.95
2017-12-31T06:53:30.175Z,34.52
2017-12-31T06:54:30.035Z,36.90
2017-12-31T06:55:30.096Z,35.95
2017-12-31T06:56:29.991Z,35.66
2017-12-31T06:57:29.994Z,38.05
2017-12-31T06:58:29.947Z,37.10
2017-12-31T06:59:30.007Z,35.00
2017-12-31T07:00:29.895Z,33.09
2017-12-31T07:01:29.941Z,36.24
2017-12-31T07:02:29.845Z,35.57
2017-12-31T07:03:29.926Z,35.00
2017-12-31T07:04:29.813Z,38.71
2017-12-31T07:05:29.836Z,38.34
2017-12-31T07:06:29.749Z,36.33
2017-12-31T07:07:29.747Z,37.38
2017-12-31T07:08:29.752Z,39.48
2017-12-31T07:09:29.683Z,36.90
2017-12-31T07:10:29.765Z,41.20
2017-12-31T07:11:29.635Z,42.24
2017-12-31T07:12:29.675Z,40.63
2017-12-31T07:13:29.588Z,40.44
2017-12-31T07:14:29.585Z,42.91
2017-12-31T07:15:29.543Z,41.20
2017-12-31T07:16:29.604Z,39.19
2017-12-31T07:17:29.498Z,37.38
2017-12-31T07:18:29.509Z,39.29
2017-12-31T07:19:29.446Z,36.24
2017-12-31T07:20:29.523Z,41.00
2017-12-31T07:21:29.399Z,45.29
2017-12-31T07:22:29.372Z,41.29
2017-12-31T07:23:29.438Z,42.72
2017-12-31T07:24:29.332Z,41.20
2017-12-31T07:25:29.348Z,42.24
2017-12-31T07:26:29.282Z,46.34
2017-12-31T07:27:29.360Z,45.10
2017-12-31T07:28:29.233Z,43.29
2017-12-31T07:29:29.270Z,42.15
2017-12-31T07:30:29.193Z,42.15
2017-12-31T07:31:29.185Z,43.58
2017-12-31T07:32:29.140Z,44.44
2017-12-31T07:33:29.189Z,43.29
2017-12-31T07:34:29.094Z,46.34
2017-12-31T07:35:29.100Z,48.73
2017-12-31T07:36:29.046Z,41.48
2017-12-31T07:37:29.111Z,46.63
2017-12-31T07:38:28.997Z,48.73
2017-12-31T07:39:29.021Z,48.16
2017-12-31T07:40:28.958Z,50.54
2017-12-31T07:41:29.032Z,48.73
2017-12-31T07:42:28.908Z,49.11
2017-12-31T07:43:28.946Z,52.83
2017-12-31T07:44:28.857Z,52.07
2017-12-31T07:45:28.854Z,46.25
2017-12-31T07:46:28.820Z,48.35
2017-12-31T07:47:28.869Z,48.54
2017-12-31T07:48:28.766Z,52.83
2017-12-31T07:49:28.783Z,47.87
2017-12-31T07:50:28.712Z,53.31
2017-12-31T07:51:28.790Z,55.79
2017-12-31T07:52:28.669Z,50.54
2017-12-31T07:53:28.697Z,54.74
2017-12-31T07:54:28.618Z,55.60
2017-12-31T07:55:28.602Z,56.26
2017-12-31T07:56:28.613Z,48.16
2017-12-31T07:57:28.552Z,53.69
2017-12-31T07:58:28.627Z,51.21
2017-12-31T07:59:28.501Z,54.26
2017-12-31T08:00:28.547Z,54.26
2017-12-31T08:01:28.458Z,59.60
2017-12-31T08:02:28.448Z,58.97
2017-12-31T08:03:28.410Z,53.59
2017-12-31T08:04:28.460Z,55.31
2017-12-31T08:05:28.363Z,54.07
2017-12-31T08:06:28.369Z,50.54
2017-12-31T08:07:28.318Z,50.35
2017-12-31T08:08:28.289Z,57.22
2017-12-31T08:09:28.276Z,50.73
2017-12-31T08:10:28.289Z,51.78
2017-12-31T08:11:28.221Z,60.65
2017-12-31T08:12:28.301Z,51.88
2017-12-31T08:13:28.176Z,50.45
2017-12-31T08:14:28.175Z,57.79
2017-12-31T08:15:28.131Z,54.74
2017-12-31T08:16:28.227Z,58.55
2017-12-31T08:17:28.091Z,55.41
2017-12-31T08:18:28.135Z,50.83
2017-12-31T08:19:28.036Z,47.87
2017-12-31T08:20:28.047Z,52.16
2017-12-31T08:21:27.985Z,54.07
2017-12-31T08:22:28.061Z,51.59
2017-12-31T08:23:27.936Z,59.51
2017-12-31T08:24:27.969Z,45.29
2017-12-31T08:25:27.978Z,52.64
2017-12-31T08:26:27.870Z,48.73
2017-12-31T08:27:29.932Z,52.64
2017-12-31T08:28:27.854Z,53.97
2017-12-31T08:29:33.736Z,49.21
2017-12-31T08:30:27.780Z,53.59
2017-12-31T08:31:27.812Z,50.92
2017-12-31T08:32:27.748Z,52.55
2017-12-31T08:33:27.822Z,53.59
2017-12-31T08:34:27.691Z,51.97
2017-12-31T08:35:27.656Z,49.21
2017-12-31T08:36:27.640Z,50.16
2017-12-31T08:37:27.642Z,53.69
2017-12-31T08:38:27.593Z,56.07
2017-12-31T08:39:27.657Z,53.88
2017-12-31T08:40:27.585Z,58.46
2017-12-31T08:41:27.518Z,55.21
2017-12-31T08:42:27.575Z,54.64
2017-12-31T08:43:27.474Z,55.98
2017-12-31T08:44:27.480Z,59.70
2017-12-31T08:45:27.423Z,58.07
2017-12-31T08:46:27.491Z,58.68
2017-12-31T08:47:27.376Z,56.17
2017-12-31T08:48:27.406Z,54.26
2017-12-31T08:49:27.327Z,64.40
2017-12-31T08:50:27.417Z,64.28
2017-12-31T08:51:27.317Z,57.92
2017-12-31T08:52:27.257Z,63.73
2017-12-31T08:53:27.332Z,56.38
2017-12-31T08:54:27.215Z,60.49
2017-12-31T08:55:27.235Z,65.93
2017-12-31T08:56:27.244Z,61.44
2017-12-31T08:57:27.149Z,57.34
2017-12-31T08:58:27.157Z,54.67
2017-12-31T08:59:27.091Z,65.45
2017-12-31T09:00:27.165Z,62.02
2017-12-31T09:01:27.072Z,61.92
2017-12-31T09:02:27.027Z,65.93
2017-12-31T09:03:27.080Z,65.55
2017-12-31T09:04:26.982Z,63.73
2017-12-31T09:05:27.003Z,66.22
2017-12-31T09:06:27.140Z,66.12
2017-12-31T09:07:26.907Z,68.32
2017-12-31T09:08:26.905Z,66.41
2017-12-31T09:09:26.865Z,65.93
2017-12-31T09:10:26.920Z,65.17
2017-12-31T09:11:26.811Z,64.50
2017-12-31T09:12:26.828Z,66.98
2017-12-31T09:13:26.771Z,64.02
2017-12-31T09:14:26.842Z,62.40
2017-12-31T09:15:26.723Z,60.87
2017-12-31T09:16:26.751Z,63.73
2017-12-31T09:17:26.676Z,70.70
2017-12-31T09:18:26.766Z,68.03
2017-12-31T09:19:26.625Z,69.17
2017-12-31T09:20:26.673Z,69.56
2017-12-31T09:21:26.585Z,70.89
2017-12-31T09:22:26.583Z,67.30
2017-12-31T09:23:26.538Z,73.85
2017-12-31T09:24:26.608Z,67.40
2017-12-31T09:25:26.488Z,66.35
2017-12-31T09:26:26.521Z,69.02
2017-12-31T09:27:26.441Z,68.16
2017-12-31T09:28:26.517Z,68.44
2017-12-31T09:29:26.401Z,67.77
2017-12-31T09:30:26.391Z,67.58
2017-12-31T09:31:26.435Z,73.60
2017-12-31T09:32:26.346Z,69.68
2017-12-31T09:33:26.351Z,67.68
2017-12-31T09:34:26.296Z,69.31
2017-12-31T09:35:26.355Z,70.64
2017-12-31T09:36:26.237Z,71.50
2017-12-31T09:37:26.266Z,72.93
2017-12-31T09:38:26.204Z,71.69
2017-12-31T09:39:26.279Z,72.26
2017-12-31T09:40:26.142Z,72.17
2017-12-31T09:41:26.197Z,69.78
2017-12-31T09:42:26.095Z,69.59
2017-12-31T09:43:26.146Z,66.92
2017-12-31T09:44:26.056Z,65.30
2017-12-31T09:45:26.112Z,69.97
2017-12-31T09:46:26.006Z,68.73
2017-12-31T09:47:26.023Z,68.44
2017-12-31T09:48:25.959Z,70.36
2017-12-31T09:49:26.036Z,67.30
2017-12-31T09:50:25.931Z,72.45
2017-12-31T09:51:25.894Z,69.78
2017-12-31T09:52:25.871Z,69.40
2017-12-31T09:53:25.956Z,72.26
2017-12-31T09:54:25.822Z,69.97
2017-12-31T09:55:25.864Z,70.07
2017-12-31T09:56:25.776Z,71.98
2017-12-31T09:57:25.773Z,73.98
2017-12-31T09:58:25.734Z,70.83
2017-12-31T09:59:25.785Z,72.93
2017-12-31T10:00:25.688Z,74.08
2017-12-31T10:01:25.698Z,72.55
2017-12-31T10:02:25.643Z,68.54
2017-12-31T10:03:25.710Z,70.73
2017-12-31T10:04:25.593Z,73.50
2017-12-31T10:05:25.619Z,71.21
2017-12-31T10:06:25.553Z,71.78
2017-12-31T10:07:25.638Z,71.31
2017-12-31T10:08:25.506Z,72.07
2017-12-31T10:09:25.547Z,72.55
2017-12-31T10:10:25.463Z,72.93
2017-12-31T10:11:25.433Z,72.55
2017-12-31T10:12:25.410Z,75.16
2017-12-31T10:13:25.464Z,73.35
2017-12-31T10:14:25.370Z,73.73
2017-12-31T10:15:25.372Z,72.49
2017-12-31T10:16:25.318Z,75.45
2017-12-31T10:17:25.389Z,74.93
2017-12-31T10:18:25.279Z,71.92
2017-12-31T10:19:25.258Z,74.98
2017-12-31T10:20:25.303Z,72.78
2017-12-31T10:21:25.206Z,73.35
2017-12-31T10:22:25.217Z,74.40
2017-12-31T10:23:25.160Z,75.45
2017-12-31T10:24:25.141Z,74.59
2017-12-31T10:25:25.113Z,74.02
2017-12-31T10:26:25.138Z,75.54
2017-12-31T10:27:25.071Z,75.64
2017-12-31T10:28:25.148Z,72.87
2017-12-31T10:29:25.024Z,74.40
2017-12-31T10:30:25.012Z,76.31
2017-12-31T10:31:25.062Z,75.83
2017-12-31T10:32:24.963Z,75.54
2017-12-31T10:33:24.973Z,74.88
2017-12-31T10:34:24.923Z,73.92
2017-12-31T10:35:24.889Z,75.93
2017-12-31T10:36:24.865Z,75.64
2017-12-31T10:37:24.899Z,76.60
2017-12-31T10:38:24.822Z,77.65
2017-12-31T10:39:24.907Z,76.79
2017-12-31T10:40:24.816Z,76.40
2017-12-31T10:41:24.763Z,76.31
2017-12-31T10:42:24.823Z,74.69
2017-12-31T10:43:24.715Z,76.88
2017-12-31T10:44:24.732Z,76.79
2017-12-31T10:45:24.669Z,76.60
2017-12-31T10:46:24.744Z,75.54
2017-12-31T10:47:24.622Z,76.79
2017-12-31T10:48:24.655Z,77.55
2017-12-31T10:49:24.576Z,74.98
2017-12-31T10:50:24.665Z,74.30
2017-12-31T10:51:24.531Z,74.98
2017-12-31T10:52:24.576Z,74.98
2017-12-31T10:53:24.487Z,72.78
2017-12-31T10:54:24.491Z,76.31
2017-12-31T10:55:24.436Z,72.78
2017-12-31T10:56:24.414Z,77.17
2017-12-31T10:57:24.398Z,75.16
2017-12-31T10:58:24.412Z,76.88
2017-12-31T10:59:24.351Z,76.50
2017-12-31T11:00:24.422Z,75.74
2017-12-31T11:01:24.310Z,76.60
2017-12-31T11:02:24.332Z,76.79
2017-12-31T11:03:24.258Z,75.35
2017-12-31T11:04:24.346Z,78.13
2017-12-31T11:05:24.222Z,78.41
2017-12-31T11:06:24.255Z,78.41
2017-12-31T11:07:24.260Z,76.12
2017-12-31T11:08:24.155Z,78.07
2017-12-31T11:09:24.167Z,78.26
2017-12-31T11:10:24.104Z,76.82
2017-12-31T11:11:24.185Z,76.82
2017-12-31T11:12:24.059Z,77.30
2017-12-31T11:13:24.035Z,78.74
2017-12-31T11:14:24.117Z,78.64
2017-12-31T11:15:23.997Z,76.82
2017-12-31T11:16:24.009Z,78.26
2017-12-31T11:17:23.948Z,77.78
2017-12-31T11:18:23.949Z,78.16
2017-12-31T11:19:23.904Z,78.64
2017-12-31T11:20:23.928Z,77.78
2017-12-31T11:21:23.853Z,79.31
2017-12-31T11:22:23.947Z,79.41
2017-12-31T11:23:23.819Z,80.27
2017-12-31T11:24:23.784Z,78.36
2017-12-31T11:25:23.884Z,79.22
2017-12-31T11:26:23.749Z,79.50
2017-12-31T11:27:23.769Z,79.12
2017-12-31T11:28:23.698Z,79.69
2017-12-31T11:29:23.679Z,78.45
2017-12-31T11:30:23.664Z,77.59
2017-12-31T11:31:23.690Z,80.55
2017-12-31T11:32:23.626Z,81.55
2017-12-31T11:33:23.605Z,79.12
2017-12-31T11:34:23.575Z,79.60
2017-12-31T11:35:23.612Z,78.83
2017-12-31T11:36:23.523Z,77.69
2017-12-31T11:37:23.522Z,78.97
2017-12-31T11:38:23.484Z,78.74
2017-12-31T11:39:23.535Z,79.79
2017-12-31T11:40:23.428Z,80.74
2017-12-31T11:41:23.455Z,79.79
2017-12-31T11:42:23.386Z,80.79
2017-12-31T11:43:23.461Z,80.98
2017-12-31T11:44:23.341Z,81.65
2017-12-31T11:45:23.371Z,80.88
2017-12-31T11:46:23.299Z,82.22
2017-12-31T11:47:23.400Z,80.59
2017-12-31T11:48:23.258Z,81.84
2017-12-31T11:49:23.294Z,79.64
2017-12-31T11:50:23.213Z,80.21
2017-12-31T11:51:23.302Z,81.26
2017-12-31T11:52:23.170Z,80.50
2017-12-31T11:53:23.214Z,82.60
2017-12-31T11:54:23.129Z,81.36
2017-12-31T11:55:23.102Z,83.08
2017-12-31T11:56:23.082Z,82.22
2017-12-31T11:57:23.141Z,81.93
2017-12-31T11:58:23.040Z,80.88
2017-12-31T11:59:23.043Z,81.65
2017-12-31T12:00:22.997Z,81.36
2017-12-31T12:01:22.969Z,83.65
2017-12-31T12:02:23.067Z,83.17
2017-12-31T12:03:22.923Z,81.45
2017-12-31T12:04:22.971Z,81.65
2017-12-31T12:05:22.888Z,81.07
2017-12-31T12:06:22.863Z,80.88
2017-12-31T12:07:22.852Z,82.03
2017-12-31T12:08:22.895Z,82.31
2017-12-31T12:09:22.795Z,82.03
2017-12-31T12:10:22.804Z,83.37
2017-12-31T12:11:22.751Z,81.84
2017-12-31T12:12:22.725Z,83.17
2017-12-31T12:13:22.720Z,82.22
2017-12-31T12:14:22.686Z,82.79
2017-12-31T12:15:22.731Z,83.17
2017-12-31T12:16:22.737Z,81.07
2017-12-31T12:17:22.619Z,83.17
2017-12-31T12:18:22.649Z,82.41
2017-12-31T12:19:22.680Z,81.74
2017-12-31T12:20:22.692Z,81.07
2017-12-31T12:21:22.527Z,81.93
2017-12-31T12:22:22.572Z,83.27
2017-12-31T12:23:22.486Z,82.60
2017-12-31T12:24:22.482Z,84.32
2017-12-31T12:25:22.441Z,82.41
2017-12-31T12:26:22.615Z,82.70
2017-12-31T12:27:22.397Z,82.03
2017-12-31T12:28:22.404Z,82.51
2017-12-31T12:29:22.376Z,81.36
2017-12-31T12:30:22.415Z,82.98
2017-12-31T12:31:22.309Z,81.55
2017-12-31T12:32:22.326Z,82.98
2017-12-31T12:33:22.335Z,82.98
2017-12-31T12:34:22.241Z,84.42
2017-12-31T12:35:22.243Z,82.41
2017-12-31T12:36:22.203Z,83.08
2017-12-31T12:37:22.253Z,83.75
2017-12-31T12:38:22.152Z,82.51
2017-12-31T12:39:22.130Z,83.84
2017-12-31T12:40:22.170Z,81.84
2017-12-31T12:41:22.089Z,82.51
2017-12-31T12:42:22.188Z,83.17
2017-12-31T12:43:22.039Z,82.79
2017-12-31T12:44:22.027Z,83.94
2017-12-31T12:45:22.100Z,83.46
2017-12-31T12:46:21.982Z,84.70
2017-12-31T12:47:22.011Z,83.56
2017-12-31T12:48:21.939Z,83.56
2017-12-31T12:49:21.989Z,82.51
2017-12-31T12:50:21.902Z,82.98
2017-12-31T12:51:22.133Z,85.09
2017-12-31T12:52:21.846Z,85.47